Time;durP1;ratioP1;P1;durP2;ratioP2;P2;SDS_P1;SDS_P2;PMS_P1;PMS_P2;Temp;Humidity;BMP_temperature;BMP_pressure;BME280_temperature;BME280_humidity;BME280_pressure;Samples;Min_cycle;Max_cycle;Signal;HPM_P1;HPM_P2
2023/07/04 00:01:05;;;;;;;0.10;0.10;;;;;;;;;;5127070;27;20047;-52
2023/07/04 00:03:32;;;;;;;0.10;0.10;;;;;;;;;;5127058;28;20058;-52
2023/07/04 00:05:57;;;;;;;0.10;0.10;;;;;;;;;;5125989;27;20050;-53
2023/07/04 00:08:25;;;;;;;0.10;0.10;;;;;;;;;;5132127;27;20074;-52
2023/07/04 00:10:50;;;;;;;0.10;0.10;;;;;;;;;;5126816;28;20113;-52
2023/07/04 00:13:17;;;;;;;0.10;0.10;;;;;;;;;;5127192;28;20039;-53
2023/07/04 00:15:45;;;;;;;0.10;0.10;;;;;;;;;;5126177;27;20240;-51
2023/07/04 00:18:10;;;;;;;0.10;0.10;;;;;;;;;;5125932;28;20514;-51
2023/07/04 00:20:37;;;;;;;0.10;0.10;;;;;;;;;;5127185;28;20051;-52
2023/07/04 00:23:02;;;;;;;0.10;0.10;;;;;;;;;;5127244;28;20346;-52
2023/07/04 00:25:28;;;;;;;0.10;0.10;;;;;;;;;;5127200;28;20039;-51
2023/07/04 00:27:54;;;;;;;0.10;0.10;;;;;;;;;;5126770;28;20047;-52
2023/07/04 00:30:20;;;;;;;0.10;0.10;;;;;;;;;;5126463;28;20655;-52
2023/07/04 00:32:45;;;;;;;0.10;0.10;;;;;;;;;;5126744;28;20050;-53
2023/07/04 00:35:11;;;;;;;0.10;0.10;;;;;;;;;;5126449;28;20487;-52
2023/07/04 00:37:36;;;;;;;0.10;0.10;;;;;;;;;;5126998;28;20096;-53
2023/07/04 00:40:05;;;;;;;0.10;0.10;;;;;;;;;;5126525;28;20062;-51
2023/07/04 00:42:34;;;;;;;;;;;;;;;;;;5126376;28;20475;-52
2023/07/04 00:44:59;;;;;;;0.10;0.10;;;;;;;;;;5126527;27;19954;-51
2023/07/04 00:47:42;;;;;;;0.10;0.10;;;;;;;;;;5127036;28;20047;-53
2023/07/04 00:50:09;;;;;;;0.10;0.10;;;;;;;;;;5126466;27;20047;-51
2023/07/04 00:52:36;;;;;;;0.15;0.15;;;;;;;;;;5126608;28;20047;-52
2023/07/04 00:55:04;;;;;;;0.10;0.10;;;;;;;;;;5126732;28;20071;-52
2023/07/04 00:57:31;;;;;;;0.10;0.10;;;;;;;;;;5127563;27;20100;-52
2023/07/04 00:59:58;;;;;;;0.10;0.10;;;;;;;;;;5129472;28;20047;-51
2023/07/04 01:02:28;;;;;;;0.10;0.10;;;;;;;;;;5129622;27;20047;-52
2023/07/04 01:04:54;;;;;;;0.10;0.10;;;;;;;;;;5126615;28;20075;-52
2023/07/04 01:07:27;;;;;;;0.10;0.10;;;;;;;;;;5130799;27;20054;-52
2023/07/04 01:10:13;;;;;;;0.10;0.10;;;;;;;;;;5147039;27;20505;-52
2023/07/04 01:12:39;;;;;;;0.10;0.10;;;;;;;;;;5114083;27;20047;-53
2023/07/04 01:15:05;;;;;;;0.10;0.10;;;;;;;;;;5129004;28;20646;-52
2023/07/04 01:17:31;;;;;;;0.10;0.10;;;;;;;;;;5129454;28;20046;-52
2023/07/04 01:19:57;;;;;;;0.10;0.10;;;;;;;;;;5129038;28;20054;-52
2023/07/04 01:22:27;;;;;;;0.10;0.10;;;;;;;;;;5129290;28;20079;-54
2023/07/04 01:24:57;;;;;;;0.10;0.10;;;;;;;;;;5129128;28;20089;-50
2023/07/04 01:27:23;;;;;;;0.10;0.10;;;;;;;;;;5129460;28;20071;-51
2023/07/04 01:29:48;;;;;;;0.10;0.10;;;;;;;;;;5128457;28;20056;-52
2023/07/04 01:32:14;;;;;;;0.10;0.10;;;;;;;;;;5129443;28;20055;-52
2023/07/04 01:34:41;;;;;;;0.10;0.10;;;;;;;;;;5129304;28;20112;-52
2023/07/04 01:37:06;;;;;;;0.10;0.10;;;;;;;;;;5128385;28;20043;-53
2023/07/04 01:39:32;;;;;;;0.10;0.10;;;;;;;;;;5129044;28;20134;-53
2023/07/04 01:41:58;;;;;;;0.10;0.10;;;;;;;;;;5128779;28;20047;-52
2023/07/04 01:44:24;;;;;;;0.10;0.10;;;;;;;;;;5128665;28;20048;-52
2023/07/04 01:46:50;;;;;;;0.10;0.10;;;;;;;;;;5129239;27;20051;-52
2023/07/04 01:49:17;;;;;;;0.10;0.10;;;;;;;;;;5129780;27;20108;-52
2023/07/04 01:51:43;;;;;;;0.10;0.10;;;;;;;;;;5129148;27;20047;-52
2023/07/04 01:54:09;;;;;;;0.10;0.10;;;;;;;;;;5129467;28;20488;-51
2023/07/04 01:56:37;;;;;;;0.10;0.10;;;;;;;;;;5129479;28;20051;-52
2023/07/04 01:59:02;;;;;;;0.10;0.10;;;;;;;;;;5129567;28;20043;-52
2023/07/04 02:01:28;;;;;;;0.10;0.10;;;;;;;;;;5128176;27;20078;-51
2023/07/04 02:03:53;;;;;;;0.10;0.10;;;;;;;;;;5129285;28;20159;-52
2023/07/04 02:06:19;;;;;;;0.10;0.10;;;;;;;;;;5120443;27;20127;-51
2023/07/04 02:08:45;;;;;;;0.10;0.10;;;;;;;;;;5147124;27;20095;-51
2023/07/04 02:11:12;;;;;;;0.10;0.10;;;;;;;;;;5135134;27;20529;-52
2023/07/04 02:13:38;;;;;;;0.10;0.10;;;;;;;;;;5128591;27;20070;-51
2023/07/04 02:16:04;;;;;;;0.10;0.10;;;;;;;;;;5128438;28;20055;-52
2023/07/04 02:18:30;;;;;;;0.13;0.13;;;;;;;;;;5128729;28;20177;-52
2023/07/04 02:20:55;;;;;;;0.10;0.10;;;;;;;;;;5127928;28;20410;-52
2023/07/04 02:23:21;;;;;;;0.10;0.10;;;;;;;;;;5128283;28;20051;-51
2023/07/04 02:25:48;;;;;;;0.10;0.10;;;;;;;;;;5127802;28;20201;-52
2023/07/04 02:28:14;;;;;;;0.10;0.10;;;;;;;;;;5128250;27;20051;-52
2023/07/04 02:30:39;;;;;;;0.10;0.10;;;;;;;;;;5126990;28;20337;-51
2023/07/04 02:33:05;;;;;;;0.10;0.10;;;;;;;;;;5127839;28;20047;-51
2023/07/04 02:35:30;;;;;;;0.10;0.10;;;;;;;;;;5127854;28;20054;-52
2023/07/04 02:37:56;;;;;;;0.10;0.10;;;;;;;;;;5127462;28;20055;-52
2023/07/04 02:40:22;;;;;;;0.10;0.10;;;;;;;;;;5127530;27;20087;-51
2023/07/04 02:42:48;;;;;;;0.10;0.10;;;;;;;;;;5127294;27;20507;-52
2023/07/04 02:45:13;;;;;;;0.10;0.10;;;;;;;;;;5126533;28;20503;-53
2023/07/04 02:47:39;;;;;;;0.10;0.10;;;;;;;;;;5127062;27;20047;-51
2023/07/04 02:50:05;;;;;;;0.10;0.10;;;;;;;;;;5127225;27;20058;-52
2023/07/04 02:52:30;;;;;;;0.10;0.10;;;;;;;;;;5127180;28;20205;-54
2023/07/04 02:54:56;;;;;;;0.10;0.10;;;;;;;;;;5127682;28;20095;-53
2023/07/04 02:57:22;;;;;;;0.10;0.10;;;;;;;;;;5127130;28;20583;-52
2023/07/04 02:59:47;;;;;;;0.10;0.10;;;;;;;;;;5126930;28;20483;-52
2023/07/04 03:02:13;;;;;;;0.10;0.10;;;;;;;;;;5126990;27;20058;-52
2023/07/04 03:04:39;;;;;;;1.35;0.20;;;;;;;;;;5117808;28;20083;-52
2023/07/04 03:07:04;;;;;;;0.10;0.10;;;;;;;;;;5131598;27;20051;-52
2023/07/04 03:09:30;;;;;;;0.10;0.10;;;;;;;;;;5128919;27;20103;-52
2023/07/04 03:11:56;;;;;;;0.10;0.10;;;;;;;;;;5127155;27;20078;-51
2023/07/04 03:14:21;;;;;;;0.10;0.10;;;;;;;;;;5126197;28;20050;-51
2023/07/04 03:16:47;;;;;;;0.10;0.10;;;;;;;;;;5126857;28;20039;-52
2023/07/04 03:19:12;;;;;;;0.10;0.10;;;;;;;;;;5127079;28;20047;-51
2023/07/04 03:21:38;;;;;;;0.10;0.10;;;;;;;;;;5125738;27;20062;-53
2023/07/04 03:24:04;;;;;;;0.10;0.10;;;;;;;;;;5126604;28;20134;-52
2023/07/04 03:26:29;;;;;;;0.10;0.10;;;;;;;;;;5126525;28;20087;-52
2023/07/04 03:28:55;;;;;;;0.10;0.10;;;;;;;;;;5126908;28;20103;-51
2023/07/04 03:31:20;;;;;;;0.10;0.10;;;;;;;;;;5126345;28;20120;-50
2023/07/04 03:33:46;;;;;;;0.10;0.10;;;;;;;;;;5125741;28;20058;-51
2023/07/04 03:36:11;;;;;;;0.10;0.10;;;;;;;;;;5126706;28;20538;-52
2023/07/04 03:38:37;;;;;;;0.10;0.10;;;;;;;;;;5126928;28;20051;-51
2023/07/04 03:41:02;;;;;;;0.10;0.10;;;;;;;;;;5125498;28;20047;-51
2023/07/04 03:43:28;;;;;;;0.10;0.10;;;;;;;;;;5126287;28;20074;-52
2023/07/04 03:45:54;;;;;;;0.10;0.10;;;;;;;;;;5125936;28;20047;-52
2023/07/04 03:48:20;;;;;;;0.10;0.10;;;;;;;;;;5125380;27;20055;-52
2023/07/04 03:50:45;;;;;;;0.10;0.10;;;;;;;;;;5126327;27;20073;-51
2023/07/04 03:53:11;;;;;;;0.10;0.10;;;;;;;;;;5126467;27;20410;-52
2023/07/04 03:55:36;;;;;;;0.10;0.10;;;;;;;;;;5126754;27;20071;-53
2023/07/04 03:58:02;;;;;;;0.10;0.10;;;;;;;;;;5126745;28;20108;-53
2023/07/04 04:00:28;;;;;;;0.10;0.10;;;;;;;;;;5126345;27;20059;-52
2023/07/04 04:02:54;;;;;;;0.10;0.10;;;;;;;;;;5126586;28;20096;-52
2023/07/04 04:05:19;;;;;;;0.10;0.10;;;;;;;;;;5123688;27;20062;-52
2023/07/04 04:07:48;;;;;;;0.10;0.10;;;;;;;;;;5126836;27;20506;-52
2023/07/04 04:10:14;;;;;;;0.10;0.10;;;;;;;;;;5126071;27;20071;-52
2023/07/04 04:12:41;;;;;;;0.10;0.10;;;;;;;;;;5126642;28;20570;-52
2023/07/04 04:15:06;;;;;;;0.10;0.10;;;;;;;;;;5125766;28;20040;-51
2023/07/04 04:17:32;;;;;;;0.10;0.10;;;;;;;;;;5126431;27;20040;-51
2023/07/04 04:19:58;;;;;;;0.10;0.10;;;;;;;;;;5125444;28;20138;-51
2023/07/04 04:22:23;;;;;;;0.10;0.10;;;;;;;;;;5126157;28;20043;-50
2023/07/04 04:24:49;;;;;;;0.10;0.10;;;;;;;;;;5125690;28;20047;-51
2023/07/04 04:27:15;;;;;;;0.10;0.10;;;;;;;;;;5126210;28;20128;-51
2023/07/04 04:29:41;;;;;;;0.10;0.10;;;;;;;;;;5125937;27;20066;-51
2023/07/04 04:32:07;;;;;;;0.10;0.10;;;;;;;;;;5126892;27;20096;-51
2023/07/04 04:34:32;;;;;;;0.10;0.10;;;;;;;;;;5129030;28;20043;-52
2023/07/04 04:36:58;;;;;;;0.22;0.22;;;;;;;;;;5130026;28;20501;-51
2023/07/04 04:39:27;;;;;;;0.10;0.10;;;;;;;;;;5129084;27;20449;-52
2023/07/04 04:41:53;;;;;;;0.10;0.10;;;;;;;;;;5128994;27;20075;-52
2023/07/04 04:44:18;;;;;;;0.10;0.10;;;;;;;;;;5129421;28;20054;-51
2023/07/04 04:46:48;;;;;;;0.10;0.10;;;;;;;;;;5129536;28;20048;-52
2023/07/04 04:49:15;;;;;;;0.10;0.10;;;;;;;;;;5129230;28;20079;-53
2023/07/04 04:51:44;;;;;;;0.10;0.10;;;;;;;;;;5126320;28;20105;-52
2023/07/04 04:54:12;;;;;;;0.10;0.10;;;;;;;;;;5129096;28;20449;-53
2023/07/04 04:56:37;;;;;;;0.10;0.10;;;;;;;;;;5129205;28;20079;-52
2023/07/04 04:59:03;;;;;;;0.10;0.10;;;;;;;;;;5129577;28;20104;-52
2023/07/04 05:01:28;;;;;;;0.10;0.10;;;;;;;;;;5129083;27;20495;-52
2023/07/04 05:03:55;;;;;;;0.10;0.10;;;;;;;;;;5128496;27;20055;-52
2023/07/04 05:06:22;;;;;;;0.10;0.10;;;;;;;;;;5138402;27;20561;-52
2023/07/04 05:08:48;;;;;;;0.10;0.10;;;;;;;;;;5129087;28;20066;-52
2023/07/04 05:11:14;;;;;;;0.10;0.10;;;;;;;;;;5128666;28;20100;-52
2023/07/04 05:13:40;;;;;;;0.10;0.10;;;;;;;;;;5129263;28;20047;-52
2023/07/04 05:16:08;;;;;;;0.10;0.10;;;;;;;;;;5120062;28;20087;-51
2023/07/04 05:18:34;;;;;;;0.10;0.10;;;;;;;;;;5125885;28;20047;-51
2023/07/04 05:21:03;;;;;;;0.10;0.10;;;;;;;;;;5129003;28;20066;-52
2023/07/04 05:23:30;;;;;;;0.10;0.10;;;;;;;;;;5128578;28;20055;-52
2023/07/04 05:26:12;;;;;;;0.10;0.10;;;;;;;;;;5128177;28;20613;-52
2023/07/04 05:28:38;;;;;;;0.10;0.10;;;;;;;;;;5128802;28;20339;-52
2023/07/04 05:31:06;;;;;;;0.10;0.10;;;;;;;;;;5128580;28;20415;-51
2023/07/04 05:33:33;;;;;;;0.10;0.10;;;;;;;;;;5128827;27;20050;-52
2023/07/04 05:36:07;;;;;;;0.10;0.10;;;;;;;;;;5128231;28;20083;-51
2023/07/04 05:38:33;;;;;;;0.10;0.10;;;;;;;;;;5128923;28;20054;-52
2023/07/04 05:40:58;;;;;;;0.10;0.10;;;;;;;;;;5128286;28;20133;-50
2023/07/04 05:43:24;;;;;;;0.10;0.10;;;;;;;;;;5128341;27;20138;-52
2023/07/04 05:45:50;;;;;;;0.10;0.10;;;;;;;;;;5128286;27;20047;-52
2023/07/04 05:48:16;;;;;;;0.10;0.10;;;;;;;;;;5129086;27;20051;-53
2023/07/04 05:50:51;;;;;;;0.10;0.10;;;;;;;;;;5128005;28;20529;-51
2023/07/04 05:53:18;;;;;;;0.10;0.10;;;;;;;;;;5128435;28;20055;-53
2023/07/04 05:55:43;;;;;;;0.10;0.10;;;;;;;;;;5127719;28;20472;-51
2023/07/04 05:58:09;;;;;;;0.10;0.10;;;;;;;;;;5128198;28;20047;-52
2023/07/04 06:00:34;;;;;;;0.10;0.10;;;;;;;;;;5128144;27;20051;-52
2023/07/04 06:03:03;;;;;;;0.10;0.10;;;;;;;;;;5127911;27;20043;-51
2023/07/04 06:05:29;;;;;;;0.10;0.10;;;;;;;;;;5144686;27;20261;-51
2023/07/04 06:07:55;;;;;;;0.10;0.10;;;;;;;;;;5144899;27;20088;-48
2023/07/04 06:10:21;;;;;;;0.10;0.10;;;;;;;;;;5127215;27;20058;-52
2023/07/04 06:12:46;;;;;;;0.10;0.10;;;;;;;;;;5127953;28;20560;-52
2023/07/04 06:15:12;;;;;;;0.10;0.10;;;;;;;;;;5127803;28;20177;-52
2023/07/04 06:17:38;;;;;;;0.10;0.10;;;;;;;;;;5128024;28;20096;-52
2023/07/04 06:20:04;;;;;;;0.10;0.10;;;;;;;;;;5128185;28;20082;-52
2023/07/04 06:22:29;;;;;;;0.10;0.10;;;;;;;;;;5128517;27;20054;-52
2023/07/04 06:24:58;;;;;;;0.10;0.10;;;;;;;;;;5128225;28;20051;-52
2023/07/04 06:27:27;;;;;;;0.10;0.10;;;;;;;;;;5128395;28;20099;-52
2023/07/04 06:29:54;;;;;;;0.10;0.10;;;;;;;;;;5127708;28;20043;-51
2023/07/04 06:32:19;;;;;;;0.10;0.10;;;;;;;;;;5127839;28;20090;-52
2023/07/04 06:34:45;;;;;;;0.10;0.10;;;;;;;;;;5128349;28;20047;-51
2023/07/04 06:37:10;;;;;;;0.22;0.15;;;;;;;;;;5128236;28;20047;-51
2023/07/04 06:39:36;;;;;;;0.10;0.10;;;;;;;;;;5127858;28;20077;-52
2023/07/04 06:42:01;;;;;;;0.10;0.10;;;;;;;;;;5128352;28;20449;-52
2023/07/04 06:44:27;;;;;;;0.10;0.10;;;;;;;;;;5128015;28;20104;-51
2023/07/04 06:46:52;;;;;;;0.10;0.10;;;;;;;;;;5127767;28;20054;-52
2023/07/04 06:49:18;;;;;;;0.10;0.10;;;;;;;;;;5128402;28;20442;-51
2023/07/04 06:51:43;;;;;;;0.10;0.10;;;;;;;;;;5127743;28;20050;-52
2023/07/04 06:54:09;;;;;;;0.10;0.10;;;;;;;;;;5127128;27;20483;-53
2023/07/04 06:56:36;;;;;;;0.10;0.10;;;;;;;;;;5127266;28;20407;-52
2023/07/04 06:59:02;;;;;;;0.10;0.10;;;;;;;;;;5128365;27;20069;-52
2023/07/04 07:01:28;;;;;;;0.10;0.10;;;;;;;;;;5127986;27;20130;-52
2023/07/04 07:03:54;;;;;;;0.10;0.10;;;;;;;;;;5130490;27;20514;-49
2023/07/04 07:06:20;;;;;;;0.10;0.10;;;;;;;;;;5148298;27;20042;-52
2023/07/04 07:08:46;;;;;;;0.10;0.10;;;;;;;;;;5145045;27;20047;-52
2023/07/04 07:11:13;;;;;;;0.10;0.10;;;;;;;;;;5126739;28;20057;-52
2023/07/04 07:13:39;;;;;;;0.10;0.10;;;;;;;;;;5128032;28;20495;-53
2023/07/04 07:16:21;;;;;;;0.10;0.10;;;;;;;;;;5127351;28;20051;-51
2023/07/04 07:18:49;;;;;;;0.10;0.10;;;;;;;;;;5109454;28;20505;-52
2023/07/04 07:21:18;;;;;;;0.10;0.10;;;;;;;;;;5127167;28;20490;-52
2023/07/04 07:23:44;;;;;;;0.10;0.10;;;;;;;;;;5127876;28;20087;-51
2023/07/04 07:26:11;;;;;;;0.22;0.22;;;;;;;;;;5127570;27;20050;-52
2023/07/04 07:28:40;;;;;;;0.10;0.10;;;;;;;;;;5127557;27;20051;-52
2023/07/04 07:31:07;;;;;;;0.10;0.10;;;;;;;;;;5127019;28;20051;-51
2023/07/04 07:33:34;;;;;;;0.10;0.10;;;;;;;;;;5127178;28;20095;-51
2023/07/04 07:36:06;;;;;;;0.10;0.10;;;;;;;;;;5127620;27;20043;-51
2023/07/04 07:38:31;;;;;;;0.10;0.10;;;;;;;;;;5127277;28;20054;-52
2023/07/04 07:40:57;;;;;;;0.10;0.10;;;;;;;;;;5124451;28;20055;-52
2023/07/04 07:43:23;;;;;;;0.10;0.10;;;;;;;;;;5127479;28;20159;-51
2023/07/04 07:45:48;;;;;;;0.10;0.10;;;;;;;;;;5127013;28;20084;-52
2023/07/04 07:48:14;;;;;;;0.10;0.10;;;;;;;;;;5127072;28;20063;-52
2023/07/04 07:50:41;;;;;;;0.10;0.10;;;;;;;;;;5126966;28;20092;-52
2023/07/04 07:53:07;;;;;;;0.10;0.10;;;;;;;;;;5127286;28;20383;-52
2023/07/04 07:55:32;;;;;;;0.10;0.10;;;;;;;;;;5126555;28;20111;-52
2023/07/04 07:57:58;;;;;;;0.10;0.10;;;;;;;;;;5126947;28;20047;-51
2023/07/04 08:00:28;;;;;;;0.10;0.10;;;;;;;;;;5126502;27;20457;-52
2023/07/04 08:02:54;;;;;;;0.10;0.10;;;;;;;;;;5121428;27;20066;-51
2023/07/04 08:05:20;;;;;;;0.10;0.10;;;;;;;;;;5132009;27;20471;-51
2023/07/04 08:07:45;;;;;;;0.10;0.10;;;;;;;;;;5129991;27;20331;-51
2023/07/04 08:10:11;;;;;;;0.10;0.10;;;;;;;;;;5129342;28;20077;-51
2023/07/04 08:12:36;;;;;;;0.10;0.10;;;;;;;;;;5130058;28;20051;-52
2023/07/04 08:15:02;;;;;;;0.10;0.10;;;;;;;;;;5129880;28;20047;-53
2023/07/04 08:17:28;;;;;;;0.10;0.10;;;;;;;;;;5129944;28;20137;-51
2023/07/04 08:19:53;;;;;;;0.10;0.10;;;;;;;;;;5130101;28;20140;-51
2023/07/04 08:22:19;;;;;;;0.10;0.10;;;;;;;;;;5130339;28;20442;-52
2023/07/04 08:24:45;;;;;;;0.10;0.10;;;;;;;;;;5130323;28;20092;-49
2023/07/04 08:27:10;;;;;;;0.10;0.10;;;;;;;;;;5130298;27;20039;-52
2023/07/04 08:29:36;;;;;;;0.10;0.10;;;;;;;;;;5129746;28;20043;-51
2023/07/04 08:32:01;;;;;;;0.10;0.10;;;;;;;;;;5129422;28;20047;-52
2023/07/04 08:34:27;;;;;;;0.10;0.10;;;;;;;;;;5130071;28;20335;-52
2023/07/04 08:36:52;;;;;;;0.10;0.10;;;;;;;;;;5130171;28;20093;-52
2023/07/04 08:39:18;;;;;;;0.10;0.10;;;;;;;;;;5130039;28;20083;-53
2023/07/04 08:41:45;;;;;;;0.10;0.10;;;;;;;;;;5129642;28;20458;-51
2023/07/04 08:44:13;;;;;;;0.10;0.10;;;;;;;;;;5129902;28;20078;-52
2023/07/04 08:46:40;;;;;;;0.10;0.10;;;;;;;;;;5130424;28;20098;-52
2023/07/04 08:49:07;;;;;;;0.10;0.10;;;;;;;;;;5130378;28;20051;-52
2023/07/04 08:51:36;;;;;;;0.20;0.20;;;;;;;;;;5130401;28;20050;-52
2023/07/04 08:54:04;;;;;;;0.10;0.10;;;;;;;;;;5130403;28;20047;-51
2023/07/04 08:56:33;;;;;;;0.10;0.10;;;;;;;;;;5130253;28;20091;-52
2023/07/04 08:59:01;;;;;;;0.10;0.10;;;;;;;;;;5130495;27;20074;-51
2023/07/04 09:01:27;;;;;;;;;;;;;;;;;;5130806;27;20050;-52
2023/07/04 09:03:56;;;;;;;0.10;0.10;;;;;;;;;;5141777;27;19955;-52
2023/07/04 09:09:24;;;;;;;0.10;0.10;;;;;;;;;;5168703;27;20149;-49
2023/07/04 09:11:49;;;;;;;0.10;0.10;;;;;;;;;;5143540;27;20051;-50
2023/07/04 09:14:19;;;;;;;0.10;0.10;;;;;;;;;;5144895;27;20442;-49
2023/07/04 09:16:47;;;;;;;0.20;0.20;;;;;;;;;;5144280;27;20103;-49
2023/07/04 09:19:16;;;;;;;0.10;0.10;;;;;;;;;;5145044;27;20101;-50
2023/07/04 09:21:42;;;;;;;0.10;0.10;;;;;;;;;;5163111;27;20468;-50
2023/07/04 09:24:08;;;;;;;0.10;0.10;;;;;;;;;;5165616;27;20451;-49
2023/07/04 09:26:39;;;;;;;0.10;0.10;;;;;;;;;;5165526;27;20050;-50
2023/07/04 09:29:06;;;;;;;0.10;0.10;;;;;;;;;;5165364;27;20095;-48
2023/07/04 09:31:33;;;;;;;0.10;0.10;;;;;;;;;;5163721;27;20043;-50
2023/07/04 09:34:01;;;;;;;0.10;0.10;;;;;;;;;;5165037;27;20069;-49
2023/07/04 09:36:27;;;;;;;;;;;;;;;;;;5166030;27;20089;-50
2023/07/04 09:38:55;;;;;;;0.10;0.10;;;;;;;;;;5165668;27;20017;-49
2023/07/04 09:41:25;;;;;;;0.10;0.10;;;;;;;;;;5149701;27;20043;-49
2023/07/04 09:43:53;;;;;;;0.10;0.10;;;;;;;;;;5162436;27;20410;-49
2023/07/04 09:46:27;;;;;;;0.10;0.10;;;;;;;;;;5165106;27;20256;-49
2023/07/04 09:48:54;;;;;;;0.10;0.10;;;;;;;;;;5165272;27;20190;-50
2023/07/04 09:51:25;;;;;;;0.10;0.10;;;;;;;;;;5162024;27;20489;-49
2023/07/04 09:54:11;;;;;;;0.10;0.10;;;;;;;;;;5165237;27;20086;-49
2023/07/04 09:56:36;;;;;;;0.10;0.10;;;;;;;;;;5149518;27;20042;-49
2023/07/04 09:59:10;;;;;;;0.10;0.10;;;;;;;;;;5164910;27;20046;-50
2023/07/04 10:01:37;;;;;;;0.10;0.10;;;;;;;;;;5151529;27;20047;-49
2023/07/04 10:04:05;;;;;;;0.10;0.10;;;;;;;;;;5144475;27;20047;-50
2023/07/04 10:06:32;;;;;;;0.10;0.10;;;;;;;;;;5143969;27;20039;-50
2023/07/04 10:08:57;;;;;;;0.10;0.10;;;;;;;;;;5144268;27;20051;-49
2023/07/04 10:11:24;;;;;;;0.10;0.10;;;;;;;;;;5143486;27;20127;-50
2023/07/04 10:13:57;;;;;;;0.10;0.10;;;;;;;;;;5143781;27;20151;-50
2023/07/04 10:16:23;;;;;;;0.10;0.10;;;;;;;;;;5143583;27;20054;-50
2023/07/04 10:18:49;;;;;;;0.10;0.10;;;;;;;;;;5139957;27;20188;-50
2023/07/04 10:21:15;;;;;;;0.10;0.10;;;;;;;;;;5129594;28;20059;-49
2023/07/04 10:23:40;;;;;;;0.10;0.10;;;;;;;;;;5129534;28;20130;-50
2023/07/04 10:26:08;;;;;;;0.10;0.10;;;;;;;;;;5130245;28;20383;-49
2023/07/04 10:28:33;;;;;;;0.10;0.10;;;;;;;;;;5130069;28;20047;-50
2023/07/04 10:31:01;;;;;;;0.10;0.10;;;;;;;;;;5129798;28;20043;-49
2023/07/04 10:33:34;;;;;;;0.10;0.10;;;;;;;;;;5128097;28;20051;-50
2023/07/04 10:36:00;;;;;;;0.10;0.10;;;;;;;;;;5129311;28;20043;-50
2023/07/04 10:38:45;;;;;;;0.10;0.10;;;;;;;;;;5129635;28;20062;-49
2023/07/04 10:41:22;;;;;;;0.10;0.10;;;;;;;;;;5113812;28;20074;-50
2023/07/04 10:43:52;;;;;;;0.10;0.10;;;;;;;;;;5129646;28;20449;-49
2023/07/04 10:46:21;;;;;;;0.10;0.10;;;;;;;;;;5128997;28;20696;-50
2023/07/04 10:48:48;;;;;;;0.10;0.10;;;;;;;;;;5129931;27;20269;-50
2023/07/04 10:51:19;;;;;;;0.10;0.10;;;;;;;;;;5115018;27;20517;-50
2023/07/04 10:53:44;;;;;;;0.10;0.10;;;;;;;;;;5127744;28;20047;-49
2023/07/04 10:56:14;;;;;;;0.10;0.10;;;;;;;;;;5128916;28;20043;-48
2023/07/04 10:58:42;;;;;;;0.10;0.10;;;;;;;;;;5128997;27;20483;-50
2023/07/04 11:01:12;;;;;;;0.10;0.10;;;;;;;;;;5133441;27;20042;-50
2023/07/04 11:03:48;;;;;;;0.10;0.10;;;;;;;;;;5150089;27;20073;-50
2023/07/04 11:06:16;;;;;;;0.10;0.10;;;;;;;;;;5149679;27;20054;-49
2023/07/04 11:08:43;;;;;;;0.10;0.10;;;;;;;;;;5149692;27;20099;-49
2023/07/04 11:11:10;;;;;;;0.10;0.10;;;;;;;;;;5122369;27;20511;-49
2023/07/04 11:13:48;;;;;;;0.10;0.10;;;;;;;;;;5108220;28;20074;-49
2023/07/04 11:16:14;;;;;;;0.10;0.10;;;;;;;;;;5108266;28;20039;-50
2023/07/04 11:18:43;;;;;;;0.10;0.10;;;;;;;;;;5108650;28;20067;-49
2023/07/04 11:21:10;;;;;;;0.10;0.10;;;;;;;;;;5108444;28;20104;-49
2023/07/04 11:23:53;;;;;;;0.10;0.10;;;;;;;;;;5108547;28;20054;-50
2023/07/04 11:26:21;;;;;;;0.10;0.10;;;;;;;;;;5108542;28;20052;-50
2023/07/04 11:28:48;;;;;;;0.10;0.10;;;;;;;;;;5108112;28;20051;-50
2023/07/04 11:31:20;;;;;;;0.10;0.10;;;;;;;;;;5106677;28;20137;-50
2023/07/04 11:36:24;;;;;;;0.10;0.10;;;;;;;;;;5186474;27;20406;-50
2023/07/04 11:38:52;;;;;;;0.10;0.10;;;;;;;;;;5166116;27;20115;-50
2023/07/04 11:41:38;;;;;;;0.10;0.10;;;;;;;;;;5180433;27;20042;-49
2023/07/04 11:44:12;;;;;;;0.10;0.10;;;;;;;;;;5170932;27;20486;-49
2023/07/04 11:46:40;;;;;;;0.10;0.10;;;;;;;;;;5173639;27;20467;-50
2023/07/04 11:49:06;;;;;;;;;;;;;;;;;;5166393;27;20585;-50
2023/07/04 11:51:32;;;;;;;0.10;0.10;;;;;;;;;;5182433;27;20335;-49
2023/07/04 11:53:59;;;;;;;0.10;0.10;;;;;;;;;;5179376;27;20095;-50
2023/07/04 12:07:34;;;;;;;0.10;0.10;;;;;;;;;;5187104;27;20152;-50
2023/07/04 12:10:04;;;;;;;0.10;0.10;;;;;;;;;;5149879;27;20081;-49
2023/07/04 12:12:31;;;;;;;0.10;0.10;;;;;;;;;;5165829;27;20049;-49
2023/07/04 12:15:00;;;;;;;0.10;0.10;;;;;;;;;;5165248;27;20099;-49
2023/07/04 12:17:25;;;;;;;0.10;0.10;;;;;;;;;;5165789;27;20432;-50
2023/07/04 12:19:59;;;;;;;0.10;0.10;;;;;;;;;;5165725;27;20220;-49
2023/07/04 12:22:25;;;;;;;0.10;0.10;;;;;;;;;;5166040;27;20038;-50
2023/07/04 12:24:50;;;;;;;0.10;0.10;;;;;;;;;;5165566;27;20402;-50
2023/07/04 12:27:16;;;;;;;0.10;0.10;;;;;;;;;;5165388;27;20051;-48
2023/07/04 12:29:46;;;;;;;0.10;0.10;;;;;;;;;;5165692;27;20047;-49
2023/07/04 12:32:16;;;;;;;0.10;0.10;;;;;;;;;;5165718;27;20057;-50
2023/07/04 12:34:42;;;;;;;0.10;0.10;;;;;;;;;;5164297;27;20496;-49
2023/07/04 12:37:14;;;;;;;0.10;0.10;;;;;;;;;;5165330;27;20480;-49
2023/07/04 12:39:42;;;;;;;0.10;0.10;;;;;;;;;;5163897;27;20054;-48
2023/07/04 12:42:09;;;;;;;0.10;0.10;;;;;;;;;;5144767;27;20054;-50
2023/07/04 12:44:36;;;;;;;0.10;0.10;;;;;;;;;;5144313;27;20050;-49
2023/07/04 12:47:10;;;;;;;0.10;0.10;;;;;;;;;;5144629;27;20499;-48
2023/07/04 12:49:38;;;;;;;0.10;0.10;;;;;;;;;;5163825;27;20047;-49
2023/07/04 12:52:04;;;;;;;0.10;0.10;;;;;;;;;;5144111;27;20047;-50
2023/07/04 12:54:30;;;;;;;0.10;0.10;;;;;;;;;;5144155;27;20499;-48
2023/07/04 12:56:56;;;;;;;0.10;0.10;;;;;;;;;;5160406;27;20070;-50
2023/07/04 12:59:39;;;;;;;0.10;0.10;;;;;;;;;;5164845;27;20050;-48
2023/07/04 13:02:19;;;;;;;0.20;0.20;;;;;;;;;;5147994;27;20070;-48
2023/07/04 13:04:45;;;;;;;0.10;0.10;;;;;;;;;;5143676;27;20517;-49
2023/07/04 13:07:11;;;;;;;0.10;0.10;;;;;;;;;;5144006;27;20051;-49
2023/07/04 13:09:40;;;;;;;0.10;0.10;;;;;;;;;;5143381;27;20419;-50
2023/07/04 13:12:06;;;;;;;0.10;0.10;;;;;;;;;;5144256;27;20050;-49
2023/07/04 13:14:32;;;;;;;0.10;0.10;;;;;;;;;;5143805;27;20081;-49
2023/07/04 13:17:06;;;;;;;0.10;0.10;;;;;;;;;;5139739;27;20515;-50
2023/07/04 13:19:33;;;;;;;0.10;0.10;;;;;;;;;;5130065;28;20058;-50
2023/07/04 13:22:10;;;;;;;0.10;0.10;;;;;;;;;;5129997;28;20044;-49
2023/07/04 13:24:36;;;;;;;0.10;0.10;;;;;;;;;;5130091;28;20086;-50
2023/07/04 13:27:09;;;;;;;0.10;0.10;;;;;;;;;;5130066;28;20381;-49
2023/07/04 13:29:48;;;;;;;0.10;0.10;;;;;;;;;;5130034;28;20043;-50
2023/07/04 13:32:25;;;;;;;0.10;0.10;;;;;;;;;;5130270;28;20506;-50
2023/07/04 13:34:54;;;;;;;0.10;0.10;;;;;;;;;;5129782;28;20066;-49
2023/07/04 13:37:20;;;;;;;0.10;0.10;;;;;;;;;;5129119;28;20043;-49
2023/07/04 13:39:49;;;;;;;0.10;0.10;;;;;;;;;;5126708;28;20048;-49
2023/07/04 13:42:19;;;;;;;0.10;0.10;;;;;;;;;;5108761;28;20055;-48
2023/07/04 13:44:45;;;;;;;0.10;0.10;;;;;;;;;;5108748;28;20138;-49
2023/07/04 13:47:14;;;;;;;0.10;0.10;;;;;;;;;;5109128;28;20059;-50
2023/07/04 13:49:40;;;;;;;0.10;0.10;;;;;;;;;;5114571;28;20047;-50
2023/07/04 13:52:06;;;;;;;0.10;0.10;;;;;;;;;;5129802;28;20567;-49
2023/07/04 13:54:31;;;;;;;0.10;0.10;;;;;;;;;;5129362;28;20051;-50
2023/07/04 13:56:57;;;;;;;0.10;0.10;;;;;;;;;;5129092;28;20043;-50
2023/07/04 13:59:22;;;;;;;0.10;0.10;;;;;;;;;;5128606;27;20130;-47
2023/07/04 14:01:48;;;;;;;0.10;0.10;;;;;;;;;;5110535;27;20109;-49
2023/07/04 14:04:16;;;;;;;0.10;0.10;;;;;;;;;;5109245;28;20043;-48
2023/07/04 14:06:51;;;;;;;0.10;0.10;;;;;;;;;;5127822;28;20047;-49
2023/07/04 14:09:17;;;;;;;0.10;0.10;;;;;;;;;;5129207;28;20108;-48
2023/07/04 14:11:42;;;;;;;0.10;0.10;;;;;;;;;;5129059;28;20051;-48
2023/07/04 14:14:08;;;;;;;0.10;0.10;;;;;;;;;;5128739;28;20131;-49
2023/07/04 14:16:54;;;;;;;0.10;0.10;;;;;;;;;;5113287;28;20055;-48
2023/07/04 14:19:22;;;;;;;0.30;0.30;;;;;;;;;;5129269;28;20370;-49
2023/07/04 14:21:51;;;;;;;0.10;0.10;;;;;;;;;;5128935;28;20095;-49
2023/07/04 14:24:17;;;;;;;0.10;0.10;;;;;;;;;;5129197;28;20336;-49
2023/07/04 14:26:44;;;;;;;0.10;0.10;;;;;;;;;;5129288;28;20290;-47
2023/07/04 14:29:10;;;;;;;0.10;0.10;;;;;;;;;;5128345;27;20092;-54
2023/07/04 14:31:35;;;;;;;0.10;0.10;;;;;;;;;;5129054;28;20043;-49
2023/07/04 14:34:01;;;;;;;0.10;0.10;;;;;;;;;;5129141;28;20043;-49
2023/07/04 14:36:26;;;;;;;0.20;0.20;;;;;;;;;;5129200;28;20403;-48
2023/07/04 14:38:52;;;;;;;0.10;0.10;;;;;;;;;;5128613;28;20047;-49
2023/07/04 14:41:17;;;;;;;0.10;0.10;;;;;;;;;;5128614;28;20058;-50
2023/07/04 14:43:46;;;;;;;0.10;0.10;;;;;;;;;;5128755;28;20256;-49
2023/07/04 14:46:12;;;;;;;0.10;0.10;;;;;;;;;;5128085;28;20303;-49
2023/07/04 14:48:39;;;;;;;0.10;0.10;;;;;;;;;;5128295;27;20501;-50
2023/07/04 14:51:07;;;;;;;0.10;0.10;;;;;;;;;;5119026;27;20047;-48
2023/07/04 14:53:33;;;;;;;;;;;;;;;;;;5127641;28;20092;-50
2023/07/04 14:56:00;;;;;;;0.10;0.10;;;;;;;;;;5128018;28;19927;-49
2023/07/04 14:58:25;;;;;;;0.20;0.20;;;;;;;;;;5120801;27;20047;-50
2023/07/04 15:00:51;;;;;;;0.10;0.10;;;;;;;;;;5117098;27;20051;-49
2023/07/04 15:03:16;;;;;;;0.10;0.10;;;;;;;;;;5108923;28;20051;-49